sensor_id;sensor_type;location;lat;lon;timestamp;P1;durP1;ratioP1;P2;durP2;ratioP2
5454;SDS011;2750;49.050;9.250;2022-07-03T00:02:49;2.03;;;1.90;;
5454;SDS011;2750;49.050;9.250;2022-07-03T00:07:52;2.10;;;1.90;;
5454;SDS011;2750;49.050;9.250;2022-07-03T00:12:53;2.10;;;1.90;;
5454;SDS011;2750;49.050;9.250;2022-07-03T00:17:55;2.30;;;2.10;;
5454;SDS011;2750;49.050;9.250;2022-07-03T00:22:58;2.20;;;2.00;;
5454;SDS011;2750;49.050;9.250;2022-07-03T00:28:05;2.30;;;1.80;;
5454;SDS011;2750;49.050;9.250;2022-07-03T00:33:07;2.70;;;2.00;;
5454;SDS011;2750;49.050;9.250;2022-07-03T00:38:11;2.10;;;1.90;;
5454;SDS011;2750;49.050;9.250;2022-07-03T00:43:13;2.90;;;2.07;;
5454;SDS011;2750;49.050;9.250;2022-07-03T00:48:17;2.83;;;2.10;;
5454;SDS011;2750;49.050;9.250;2022-07-03T00:53:28;2.77;;;2.10;;
5454;SDS011;2750;49.050;9.250;2022-07-03T00:58:32;2.40;;;2.20;;
5454;SDS011;2750;49.050;9.250;2022-07-03T01:09:37;2.50;;;2.30;;
5454;SDS011;2750;49.050;9.250;2022-07-03T01:14:52;2.63;;;2.33;;
5454;SDS011;2750;49.050;9.250;2022-07-03T01:20:03;3.33;;;2.73;;
5454;SDS011;2750;49.050;9.250;2022-07-03T01:25:14;2.50;;;2.30;;
5454;SDS011;2750;49.050;9.250;2022-07-03T01:30:19;2.73;;;2.03;;
5454;SDS011;2750;49.050;9.250;2022-07-03T01:35:24;3.90;;;2.00;;
5454;SDS011;2750;49.050;9.250;2022-07-03T01:40:29;2.57;;;2.37;;
5454;SDS011;2750;49.050;9.250;2022-07-03T01:45:39;4.90;;;2.27;;
5454;SDS011;2750;49.050;9.250;2022-07-03T01:50:43;4.40;;;2.07;;
5454;SDS011;2750;49.050;9.250;2022-07-03T01:55:49;2.80;;;2.27;;
5454;SDS011;2750;49.050;9.250;2022-07-03T02:00:56;2.93;;;2.27;;
5454;SDS011;2750;49.050;9.250;2022-07-03T02:06:04;2.10;;;2.00;;
5454;SDS011;2750;49.050;9.250;2022-07-03T02:11:12;3.87;;;2.20;;
5454;SDS011;2750;49.050;9.250;2022-07-03T02:16:18;2.17;;;1.93;;
5454;SDS011;2750;49.050;9.250;2022-07-03T02:21:21;2.47;;;2.27;;
5454;SDS011;2750;49.050;9.250;2022-07-03T02:26:27;2.30;;;2.10;;
5454;SDS011;2750;49.050;9.250;2022-07-03T02:31:37;2.20;;;1.97;;
5454;SDS011;2750;49.050;9.250;2022-07-03T02:36:42;1.90;;;1.80;;
5454;SDS011;2750;49.050;9.250;2022-07-03T02:41:52;2.83;;;2.40;;
5454;SDS011;2750;49.050;9.250;2022-07-03T02:47:02;3.23;;;2.40;;
5454;SDS011;2750;49.050;9.250;2022-07-03T02:52:13;2.13;;;1.97;;
5454;SDS011;2750;49.050;9.250;2022-07-03T02:57:21;2.73;;;2.43;;
5454;SDS011;2750;49.050;9.250;2022-07-03T03:02:31;2.60;;;2.40;;
5454;SDS011;2750;49.050;9.250;2022-07-03T03:07:55;2.60;;;2.30;;
5454;SDS011;2750;49.050;9.250;2022-07-03T03:13:12;4.13;;;2.73;;
5454;SDS011;2750;49.050;9.250;2022-07-03T03:18:22;2.43;;;2.27;;
5454;SDS011;2750;49.050;9.250;2022-07-03T03:23:30;2.37;;;2.20;;
5454;SDS011;2750;49.050;9.250;2022-07-03T03:28:38;7.00;;;3.67;;
5454;SDS011;2750;49.050;9.250;2022-07-03T03:33:42;4.47;;;3.47;;
5454;SDS011;2750;49.050;9.250;2022-07-03T03:38:45;3.47;;;2.90;;
5454;SDS011;2750;49.050;9.250;2022-07-03T03:43:48;3.83;;;2.17;;
5454;SDS011;2750;49.050;9.250;2022-07-03T03:48:51;3.53;;;2.17;;
5454;SDS011;2750;49.050;9.250;2022-07-03T03:53:53;2.73;;;2.03;;
5454;SDS011;2750;49.050;9.250;2022-07-03T03:58:54;2.50;;;2.30;;
5454;SDS011;2750;49.050;9.250;2022-07-03T04:03:57;2.13;;;1.90;;
5454;SDS011;2750;49.050;9.250;2022-07-03T04:08:59;2.00;;;1.90;;
5454;SDS011;2750;49.050;9.250;2022-07-03T04:14:01;2.33;;;1.97;;
5454;SDS011;2750;49.050;9.250;2022-07-03T04:19:03;2.30;;;1.90;;
5454;SDS011;2750;49.050;9.250;2022-07-03T04:24:05;3.60;;;2.00;;
5454;SDS011;2750;49.050;9.250;2022-07-03T04:29:07;2.58;;;2.35;;
5454;SDS011;2750;49.050;9.250;2022-07-03T04:34:10;1.85;;;1.73;;
5454;SDS011;2750;49.050;9.250;2022-07-03T04:39:12;2.17;;;1.98;;
5454;SDS011;2750;49.050;9.250;2022-07-03T04:44:14;3.03;;;1.70;;
5454;SDS011;2750;49.050;9.250;2022-07-03T04:49:17;2.00;;;1.85;;
5454;SDS011;2750;49.050;9.250;2022-07-03T04:54:18;2.30;;;2.10;;
5454;SDS011;2750;49.050;9.250;2022-07-03T04:59:20;2.10;;;1.90;;
5454;SDS011;2750;49.050;9.250;2022-07-03T05:04:23;1.77;;;1.65;;
5454;SDS011;2750;49.050;9.250;2022-07-03T05:09:24;2.05;;;1.92;;
5454;SDS011;2750;49.050;9.250;2022-07-03T05:14:26;2.28;;;2.17;;
5454;SDS011;2750;49.050;9.250;2022-07-03T05:19:29;2.33;;;2.13;;
5454;SDS011;2750;49.050;9.250;2022-07-03T05:24:30;2.17;;;1.98;;
5454;SDS011;2750;49.050;9.250;2022-07-03T05:29:32;2.47;;;2.28;;
5454;SDS011;2750;49.050;9.250;2022-07-03T05:34:34;2.10;;;1.98;;
5454;SDS011;2750;49.050;9.250;2022-07-03T05:39:36;2.47;;;2.10;;
5454;SDS011;2750;49.050;9.250;2022-07-03T05:44:38;1.92;;;1.83;;
5454;SDS011;2750;49.050;9.250;2022-07-03T05:49:40;2.25;;;2.05;;
5454;SDS011;2750;49.050;9.250;2022-07-03T05:54:42;2.67;;;2.10;;
5454;SDS011;2750;49.050;9.250;2022-07-03T05:59:44;2.38;;;2.17;;
5454;SDS011;2750;49.050;9.250;2022-07-03T06:04:46;1.95;;;1.80;;
5454;SDS011;2750;49.050;9.250;2022-07-03T06:09:48;1.92;;;1.83;;
5454;SDS011;2750;49.050;9.250;2022-07-03T06:14:50;2.55;;;2.35;;
5454;SDS011;2750;49.050;9.250;2022-07-03T06:19:52;2.75;;;2.55;;
5454;SDS011;2750;49.050;9.250;2022-07-03T06:24:54;2.20;;;2.00;;
5454;SDS011;2750;49.050;9.250;2022-07-03T06:30:05;2.20;;;2.10;;
5454;SDS011;2750;49.050;9.250;2022-07-03T06:35:09;3.97;;;2.42;;
5454;SDS011;2750;49.050;9.250;2022-07-03T06:40:11;2.10;;;2.00;;
5454;SDS011;2750;49.050;9.250;2022-07-03T06:45:12;2.00;;;1.90;;
5454;SDS011;2750;49.050;9.250;2022-07-03T06:50:15;1.95;;;1.83;;
5454;SDS011;2750;49.050;9.250;2022-07-03T06:55:17;1.90;;;1.80;;
5454;SDS011;2750;49.050;9.250;2022-07-03T07:00:18;2.53;;;2.15;;
5454;SDS011;2750;49.050;9.250;2022-07-03T07:05:21;2.70;;;2.25;;
5454;SDS011;2750;49.050;9.250;2022-07-03T07:10:23;2.78;;;2.10;;
5454;SDS011;2750;49.050;9.250;2022-07-03T07:15:25;2.20;;;2.10;;
5454;SDS011;2750;49.050;9.250;2022-07-03T07:20:27;2.22;;;1.70;;
5454;SDS011;2750;49.050;9.250;2022-07-03T07:25:29;2.10;;;2.00;;
5454;SDS011;2750;49.050;9.250;2022-07-03T07:30:30;2.65;;;1.75;;
5454;SDS011;2750;49.050;9.250;2022-07-03T07:35:33;1.60;;;1.50;;
5454;SDS011;2750;49.050;9.250;2022-07-03T07:40:35;2.75;;;2.00;;
5454;SDS011;2750;49.050;9.250;2022-07-03T07:45:36;3.15;;;1.75;;
5454;SDS011;2750;49.050;9.250;2022-07-03T07:50:39;2.47;;;1.75;;
5454;SDS011;2750;49.050;9.250;2022-07-03T07:55:41;1.80;;;1.70;;
5454;SDS011;2750;49.050;9.250;2022-07-03T08:00:42;1.73;;;1.63;;
5454;SDS011;2750;49.050;9.250;2022-07-03T08:05:59;3.78;;;1.80;;
5454;SDS011;2750;49.050;9.250;2022-07-03T08:11:00;2.25;;;1.60;;
5454;SDS011;2750;49.050;9.250;2022-07-03T08:16:02;2.72;;;1.85;;
5454;SDS011;2750;49.050;9.250;2022-07-03T08:21:05;2.63;;;1.73;;
5454;SDS011;2750;49.050;9.250;2022-07-03T08:26:06;1.77;;;1.48;;
5454;SDS011;2750;49.050;9.250;2022-07-03T08:31:08;1.48;;;1.38;;
5454;SDS011;2750;49.050;9.250;2022-07-03T08:36:11;1.95;;;1.70;;
5454;SDS011;2750;49.050;9.250;2022-07-03T08:41:12;1.80;;;1.70;;
5454;SDS011;2750;49.050;9.250;2022-07-03T08:46:14;1.90;;;1.70;;
5454;SDS011;2750;49.050;9.250;2022-07-03T08:51:17;4.57;;;2.00;;
5454;SDS011;2750;49.050;9.250;2022-07-03T08:56:21;2.00;;;1.90;;
5454;SDS011;2750;49.050;9.250;2022-07-03T09:01:24;2.03;;;1.73;;
5454;SDS011;2750;49.050;9.250;2022-07-03T09:06:27;1.92;;;1.75;;
5454;SDS011;2750;49.050;9.250;2022-07-03T09:11:34;2.35;;;1.60;;
5454;SDS011;2750;49.050;9.250;2022-07-03T09:16:37;1.60;;;1.45;;
5454;SDS011;2750;49.050;9.250;2022-07-03T09:21:40;2.08;;;1.70;;
5454;SDS011;2750;49.050;9.250;2022-07-03T09:26:49;1.70;;;1.60;;
5454;SDS011;2750;49.050;9.250;2022-07-03T09:31:54;1.70;;;1.60;;
5454;SDS011;2750;49.050;9.250;2022-07-03T09:36:58;2.35;;;1.88;;
5454;SDS011;2750;49.050;9.250;2022-07-03T09:42:01;2.75;;;1.50;;
5454;SDS011;2750;49.050;9.250;2022-07-03T09:47:07;1.85;;;1.20;;
5454;SDS011;2750;49.050;9.250;2022-07-03T09:52:26;2.00;;;1.25;;
5454;SDS011;2750;49.050;9.250;2022-07-03T09:57:29;2.15;;;1.10;;
5454;SDS011;2750;49.050;9.250;2022-07-03T10:02:31;1.17;;;1.08;;
5454;SDS011;2750;49.050;9.250;2022-07-03T10:07:34;1.77;;;1.10;;
5454;SDS011;2750;49.050;9.250;2022-07-03T10:12:51;1.42;;;1.20;;
5454;SDS011;2750;49.050;9.250;2022-07-03T10:17:54;1.30;;;1.20;;
5454;SDS011;2750;49.050;9.250;2022-07-03T10:22:58;2.13;;;1.10;;
5454;SDS011;2750;49.050;9.250;2022-07-03T10:28:01;2.00;;;1.10;;
5454;SDS011;2750;49.050;9.250;2022-07-03T10:33:02;0.93;;;0.85;;
5454;SDS011;2750;49.050;9.250;2022-07-03T10:38:12;1.83;;;1.15;;
5454;SDS011;2750;49.050;9.250;2022-07-03T10:43:25;2.45;;;1.27;;
5454;SDS011;2750;49.050;9.250;2022-07-03T10:48:56;1.40;;;1.02;;
5454;SDS011;2750;49.050;9.250;2022-07-03T10:54:13;1.80;;;1.20;;
5454;SDS011;2750;49.050;9.250;2022-07-03T10:59:17;1.67;;;1.20;;
5454;SDS011;2750;49.050;9.250;2022-07-03T11:04:18;3.35;;;1.20;;
5454;SDS011;2750;49.050;9.250;2022-07-03T11:09:21;1.38;;;1.20;;
5454;SDS011;2750;49.050;9.250;2022-07-03T11:14:23;2.00;;;1.20;;
5454;SDS011;2750;49.050;9.250;2022-07-03T11:19:25;1.10;;;1.10;;
5454;SDS011;2750;49.050;9.250;2022-07-03T11:24:35;1.77;;;1.13;;
5454;SDS011;2750;49.050;9.250;2022-07-03T11:29:39;1.88;;;1.30;;
5454;SDS011;2750;49.050;9.250;2022-07-03T11:34:41;1.55;;;1.33;;
5454;SDS011;2750;49.050;9.250;2022-07-03T11:39:45;1.80;;;1.30;;
5454;SDS011;2750;49.050;9.250;2022-07-03T11:44:49;3.05;;;1.38;;
5454;SDS011;2750;49.050;9.250;2022-07-03T11:49:50;1.35;;;1.25;;
5454;SDS011;2750;49.050;9.250;2022-07-03T11:54:53;1.40;;;1.30;;
5454;SDS011;2750;49.050;9.250;2022-07-03T12:00:03;2.33;;;1.40;;
5454;SDS011;2750;49.050;9.250;2022-07-03T12:05:12;2.17;;;1.42;;
5454;SDS011;2750;49.050;9.250;2022-07-03T12:10:16;1.55;;;1.30;;
5454;SDS011;2750;49.050;9.250;2022-07-03T12:15:17;1.73;;;1.27;;
5454;SDS011;2750;49.050;9.250;2022-07-03T12:20:19;1.75;;;1.40;;
5454;SDS011;2750;49.050;9.250;2022-07-03T12:25:22;1.40;;;1.30;;
5454;SDS011;2750;49.050;9.250;2022-07-03T12:30:23;2.08;;;1.17;;
5454;SDS011;2750;49.050;9.250;2022-07-03T12:35:27;1.75;;;1.48;;
5454;SDS011;2750;49.050;9.250;2022-07-03T12:40:30;2.38;;;1.45;;
5454;SDS011;2750;49.050;9.250;2022-07-03T12:45:32;2.85;;;1.25;;
5454;SDS011;2750;49.050;9.250;2022-07-03T12:50:43;2.78;;;1.52;;
5454;SDS011;2750;49.050;9.250;2022-07-03T12:55:47;1.50;;;1.40;;
5454;SDS011;2750;49.050;9.250;2022-07-03T13:00:49;2.15;;;1.73;;
5454;SDS011;2750;49.050;9.250;2022-07-03T13:05:50;2.00;;;1.38;;
5454;SDS011;2750;49.050;9.250;2022-07-03T13:10:56;1.50;;;1.40;;
5454;SDS011;2750;49.050;9.250;2022-07-03T13:15:58;1.35;;;1.25;;
5454;SDS011;2750;49.050;9.250;2022-07-03T13:21:00;1.30;;;1.20;;
5454;SDS011;2750;49.050;9.250;2022-07-03T13:26:03;2.70;;;1.52;;
5454;SDS011;2750;49.050;9.250;2022-07-03T13:31:04;3.38;;;1.40;;
5454;SDS011;2750;49.050;9.250;2022-07-03T13:36:06;2.28;;;1.48;;
5454;SDS011;2750;49.050;9.250;2022-07-03T13:41:08;2.08;;;1.60;;
5454;SDS011;2750;49.050;9.250;2022-07-03T13:46:10;1.30;;;1.20;;
5454;SDS011;2750;49.050;9.250;2022-07-03T13:51:12;1.45;;;1.35;;
5454;SDS011;2750;49.050;9.250;2022-07-03T13:56:15;1.20;;;1.20;;
5454;SDS011;2750;49.050;9.250;2022-07-03T14:01:17;1.50;;;1.40;;
5454;SDS011;2750;49.050;9.250;2022-07-03T14:06:20;1.50;;;1.40;;
5454;SDS011;2750;49.050;9.250;2022-07-03T14:11:22;2.28;;;1.30;;
5454;SDS011;2750;49.050;9.250;2022-07-03T14:16:24;2.33;;;1.70;;
5454;SDS011;2750;49.050;9.250;2022-07-03T14:21:25;1.33;;;1.17;;
5454;SDS011;2750;49.050;9.250;2022-07-03T14:26:28;1.90;;;1.40;;
5454;SDS011;2750;49.050;9.250;2022-07-03T14:31:47;1.52;;;1.42;;
5454;SDS011;2750;49.050;9.250;2022-07-03T14:37:07;3.63;;;1.40;;
5454;SDS011;2750;49.050;9.250;2022-07-03T14:42:10;2.10;;;1.25;;
5454;SDS011;2750;49.050;9.250;2022-07-03T14:47:12;1.55;;;1.17;;
5454;SDS011;2750;49.050;9.250;2022-07-03T14:52:13;2.90;;;1.58;;
5454;SDS011;2750;49.050;9.250;2022-07-03T14:57:23;4.70;;;1.45;;
5454;SDS011;2750;49.050;9.250;2022-07-03T15:02:29;1.85;;;1.30;;
5454;SDS011;2750;49.050;9.250;2022-07-03T15:07:37;1.30;;;1.20;;
5454;SDS011;2750;49.050;9.250;2022-07-03T15:12:41;3.20;;;1.35;;
5454;SDS011;2750;49.050;9.250;2022-07-03T15:17:44;1.52;;;1.40;;
5454;SDS011;2750;49.050;9.250;2022-07-03T15:22:47;1.60;;;1.42;;
5454;SDS011;2750;49.050;9.250;2022-07-03T15:27:52;2.97;;;1.33;;
5454;SDS011;2750;49.050;9.250;2022-07-03T15:32:56;2.25;;;1.30;;
5454;SDS011;2750;49.050;9.250;2022-07-03T15:38:04;1.20;;;1.10;;
5454;SDS011;2750;49.050;9.250;2022-07-03T15:43:15;3.00;;;1.52;;
5454;SDS011;2750;49.050;9.250;2022-07-03T15:48:28;1.40;;;1.30;;
5454;SDS011;2750;49.050;9.250;2022-07-03T15:53:36;3.03;;;1.20;;
5454;SDS011;2750;49.050;9.250;2022-07-03T15:58:43;1.70;;;1.60;;
5454;SDS011;2750;49.050;9.250;2022-07-03T16:03:53;1.85;;;1.45;;
5454;SDS011;2750;49.050;9.250;2022-07-03T16:09:02;1.98;;;1.10;;
5454;SDS011;2750;49.050;9.250;2022-07-03T16:14:05;3.58;;;1.85;;
5454;SDS011;2750;49.050;9.250;2022-07-03T16:19:06;1.45;;;1.35;;
5454;SDS011;2750;49.050;9.250;2022-07-03T16:24:10;3.00;;;1.52;;
5454;SDS011;2750;49.050;9.250;2022-07-03T16:29:14;2.72;;;1.40;;
5454;SDS011;2750;49.050;9.250;2022-07-03T16:34:18;2.35;;;1.20;;
5454;SDS011;2750;49.050;9.250;2022-07-03T16:39:26;2.45;;;1.58;;
5454;SDS011;2750;49.050;9.250;2022-07-03T16:44:36;1.88;;;1.20;;
5454;SDS011;2750;49.050;9.250;2022-07-03T16:49:40;1.70;;;1.60;;
5454;SDS011;2750;49.050;9.250;2022-07-03T16:54:43;2.78;;;1.90;;
5454;SDS011;2750;49.050;9.250;2022-07-03T16:59:47;2.10;;;1.50;;
5454;SDS011;2750;49.050;9.250;2022-07-03T17:04:51;3.38;;;1.48;;
5454;SDS011;2750;49.050;9.250;2022-07-03T17:09:55;3.05;;;1.60;;
5454;SDS011;2750;49.050;9.250;2022-07-03T17:15:00;2.65;;;1.40;;
5454;SDS011;2750;49.050;9.250;2022-07-03T17:20:03;1.38;;;1.27;;
5454;SDS011;2750;49.050;9.250;2022-07-03T17:25:06;3.20;;;1.70;;
5454;SDS011;2750;49.050;9.250;2022-07-03T17:30:14;1.30;;;1.20;;
5454;SDS011;2750;49.050;9.250;2022-07-03T17:35:17;1.50;;;1.40;;
5454;SDS011;2750;49.050;9.250;2022-07-03T17:40:21;2.35;;;1.60;;
5454;SDS011;2750;49.050;9.250;2022-07-03T17:45:24;1.42;;;1.33;;
5454;SDS011;2750;49.050;9.250;2022-07-03T17:50:26;2.22;;;1.67;;
5454;SDS011;2750;49.050;9.250;2022-07-03T17:55:28;1.58;;;1.48;;
5454;SDS011;2750;49.050;9.250;2022-07-03T18:00:31;1.50;;;1.40;;
5454;SDS011;2750;49.050;9.250;2022-07-03T18:05:34;2.90;;;1.45;;
5454;SDS011;2750;49.050;9.250;2022-07-03T18:10:38;1.65;;;1.50;;
5454;SDS011;2750;49.050;9.250;2022-07-03T18:15:46;1.98;;;1.33;;
5454;SDS011;2750;49.050;9.250;2022-07-03T18:20:48;2.00;;;1.50;;
5454;SDS011;2750;49.050;9.250;2022-07-03T18:25:54;1.60;;;1.50;;
5454;SDS011;2750;49.050;9.250;2022-07-03T18:30:59;1.67;;;1.30;;
5454;SDS011;2750;49.050;9.250;2022-07-03T18:36:00;1.80;;;1.60;;
5454;SDS011;2750;49.050;9.250;2022-07-03T18:41:02;1.70;;;1.60;;
5454;SDS011;2750;49.050;9.250;2022-07-03T18:46:05;3.28;;;2.10;;
5454;SDS011;2750;49.050;9.250;2022-07-03T18:51:08;2.15;;;1.60;;
5454;SDS011;2750;49.050;9.250;2022-07-03T18:56:13;2.70;;;1.90;;
5454;SDS011;2750;49.050;9.250;2022-07-03T19:01:26;2.10;;;1.58;;
5454;SDS011;2750;49.050;9.250;2022-07-03T19:06:31;2.92;;;1.63;;
5454;SDS011;2750;49.050;9.250;2022-07-03T19:11:38;3.47;;;1.60;;
5454;SDS011;2750;49.050;9.250;2022-07-03T19:16:47;2.08;;;1.50;;
5454;SDS011;2750;49.050;9.250;2022-07-03T19:21:49;2.60;;;1.73;;
5454;SDS011;2750;49.050;9.250;2022-07-03T19:26:50;1.80;;;1.60;;
5454;SDS011;2750;49.050;9.250;2022-07-03T19:31:54;2.85;;;1.50;;
5454;SDS011;2750;49.050;9.250;2022-07-03T19:36:56;2.70;;;1.70;;
5454;SDS011;2750;49.050;9.250;2022-07-03T19:41:57;2.50;;;1.73;;
5454;SDS011;2750;49.050;9.250;2022-07-03T19:47:01;3.40;;;2.10;;
5454;SDS011;2750;49.050;9.250;2022-07-03T19:52:04;2.70;;;1.83;;
5454;SDS011;2750;49.050;9.250;2022-07-03T19:57:06;2.33;;;2.00;;
5454;SDS011;2750;49.050;9.250;2022-07-03T20:02:08;3.67;;;2.08;;
5454;SDS011;2750;49.050;9.250;2022-07-03T20:07:10;3.10;;;1.83;;
5454;SDS011;2750;49.050;9.250;2022-07-03T20:12:11;3.78;;;3.08;;
5454;SDS011;2750;49.050;9.250;2022-07-03T20:17:14;3.42;;;2.10;;
5454;SDS011;2750;49.050;9.250;2022-07-03T20:22:16;4.53;;;2.00;;
5454;SDS011;2750;49.050;9.250;2022-07-03T20:27:17;1.50;;;1.40;;
5454;SDS011;2750;49.050;9.250;2022-07-03T20:32:21;2.00;;;1.70;;
5454;SDS011;2750;49.050;9.250;2022-07-03T20:37:22;2.33;;;1.93;;
5454;SDS011;2750;49.050;9.250;2022-07-03T20:42:25;1.80;;;1.70;;
5454;SDS011;2750;49.050;9.250;2022-07-03T20:47:28;1.83;;;1.73;;
5454;SDS011;2750;49.050;9.250;2022-07-03T20:52:29;1.83;;;1.60;;
5454;SDS011;2750;49.050;9.250;2022-07-03T20:57:31;2.70;;;1.80;;
5454;SDS011;2750;49.050;9.250;2022-07-03T21:02:34;2.53;;;1.87;;
5454;SDS011;2750;49.050;9.250;2022-07-03T21:07:36;3.53;;;2.10;;
5454;SDS011;2750;49.050;9.250;2022-07-03T21:12:37;2.07;;;1.90;;
5454;SDS011;2750;49.050;9.250;2022-07-03T21:17:40;3.60;;;1.97;;
5454;SDS011;2750;49.050;9.250;2022-07-03T21:22:41;2.13;;;1.67;;
5454;SDS011;2750;49.050;9.250;2022-07-03T21:27:43;1.87;;;1.70;;
5454;SDS011;2750;49.050;9.250;2022-07-03T21:32:46;3.60;;;2.20;;
5454;SDS011;2750;49.050;9.250;2022-07-03T21:37:47;2.03;;;1.80;;
5454;SDS011;2750;49.050;9.250;2022-07-03T21:42:49;4.10;;;2.03;;
5454;SDS011;2750;49.050;9.250;2022-07-03T21:47:51;3.33;;;2.00;;
5454;SDS011;2750;49.050;9.250;2022-07-03T21:52:53;4.20;;;2.30;;
5454;SDS011;2750;49.050;9.250;2022-07-03T21:57:54;4.50;;;2.20;;
5454;SDS011;2750;49.050;9.250;2022-07-03T22:02:57;3.53;;;2.40;;
5454;SDS011;2750;49.050;9.250;2022-07-03T22:07:59;4.73;;;2.10;;
5454;SDS011;2750;49.050;9.250;2022-07-03T22:13:00;1.90;;;1.80;;
5454;SDS011;2750;49.050;9.250;2022-07-03T22:18:03;2.47;;;2.27;;
5454;SDS011;2750;49.050;9.250;2022-07-03T22:23:05;2.53;;;2.33;;
5454;SDS011;2750;49.050;9.250;2022-07-03T22:28:07;3.73;;;2.43;;
5454;SDS011;2750;49.050;9.250;2022-07-03T22:33:09;2.97;;;2.40;;
5454;SDS011;2750;49.050;9.250;2022-07-03T22:38:11;4.00;;;2.30;;
5454;SDS011;2750;49.050;9.250;2022-07-03T22:43:12;3.00;;;2.70;;
5454;SDS011;2750;49.050;9.250;2022-07-03T22:48:15;2.23;;;2.03;;
5454;SDS011;2750;49.050;9.250;2022-07-03T22:53:17;2.70;;;2.20;;
5454;SDS011;2750;49.050;9.250;2022-07-03T22:58:18;3.10;;;2.90;;
5454;SDS011;2750;49.050;9.250;2022-07-03T23:03:21;3.83;;;2.50;;
5454;SDS011;2750;49.050;9.250;2022-07-03T23:08:22;2.53;;;2.33;;
5454;SDS011;2750;49.050;9.250;2022-07-03T23:13:24;2.83;;;2.40;;
5454;SDS011;2750;49.050;9.250;2022-07-03T23:18:27;2.33;;;2.13;;
5454;SDS011;2750;49.050;9.250;2022-07-03T23:23:28;4.07;;;2.30;;
5454;SDS011;2750;49.050;9.250;2022-07-03T23:28:30;3.67;;;2.30;;
5454;SDS011;2750;49.050;9.250;2022-07-03T23:33:33;2.77;;;2.37;;
5454;SDS011;2750;49.050;9.250;2022-07-03T23:38:34;8.90;;;2.77;;
5454;SDS011;2750;49.050;9.250;2022-07-03T23:43:35;4.67;;;2.60;;
5454;SDS011;2750;49.050;9.250;2022-07-03T23:48:38;3.53;;;2.17;;
5454;SDS011;2750;49.050;9.250;2022-07-03T23:53:57;3.53;;;2.00;;
5454;SDS011;2750;49.050;9.250;2022-07-03T23:59:00;2.70;;;2.30;;
